sensor_id;sensor_type;location;lat;lon;timestamp;P1;durP1;ratioP1;P2;durP2;ratioP2
71106;SDS011;58763;47.982;11.516;2024-03-06T00:00:56;6.97;;;4.18;;
71106;SDS011;58763;47.982;11.516;2024-03-06T00:03:22;8.80;;;4.65;;
71106;SDS011;58763;47.982;11.516;2024-03-06T00:05:48;8.90;;;5.35;;
71106;SDS011;58763;47.982;11.516;2024-03-06T00:08:14;7.55;;;4.43;;
71106;SDS011;58763;47.982;11.516;2024-03-06T00:10:40;7.80;;;3.50;;
71106;SDS011;58763;47.982;11.516;2024-03-06T00:13:06;5.95;;;3.45;;
71106;SDS011;58763;47.982;11.516;2024-03-06T00:15:33;5.97;;;3.00;;
71106;SDS011;58763;47.982;11.516;2024-03-06T00:17:59;5.80;;;3.30;;
71106;SDS011;58763;47.982;11.516;2024-03-06T00:20:25;5.88;;;3.17;;
71106;SDS011;58763;47.982;11.516;2024-03-06T00:22:51;5.43;;;3.28;;
71106;SDS011;58763;47.982;11.516;2024-03-06T00:25:17;5.93;;;3.42;;
71106;SDS011;58763;47.982;11.516;2024-03-06T00:27:43;6.05;;;3.60;;
71106;SDS011;58763;47.982;11.516;2024-03-06T00:30:08;5.78;;;3.42;;
71106;SDS011;58763;47.982;11.516;2024-03-06T00:32:34;5.82;;;3.40;;
71106;SDS011;58763;47.982;11.516;2024-03-06T00:35:00;6.03;;;3.15;;
71106;SDS011;58763;47.982;11.516;2024-03-06T00:37:26;5.38;;;3.30;;
71106;SDS011;58763;47.982;11.516;2024-03-06T00:39:51;7.07;;;3.72;;
71106;SDS011;58763;47.982;11.516;2024-03-06T00:42:18;6.50;;;3.67;;
71106;SDS011;58763;47.982;11.516;2024-03-06T00:44:43;5.70;;;3.33;;
71106;SDS011;58763;47.982;11.516;2024-03-06T00:47:09;5.90;;;2.90;;
71106;SDS011;58763;47.982;11.516;2024-03-06T00:49:34;5.78;;;3.03;;
71106;SDS011;58763;47.982;11.516;2024-03-06T00:52:00;4.60;;;2.63;;
71106;SDS011;58763;47.982;11.516;2024-03-06T00:54:26;4.25;;;2.28;;
71106;SDS011;58763;47.982;11.516;2024-03-06T00:56:51;4.45;;;2.22;;
71106;SDS011;58763;47.982;11.516;2024-03-06T00:59:17;3.80;;;2.17;;
71106;SDS011;58763;47.982;11.516;2024-03-06T01:01:43;3.97;;;2.10;;
71106;SDS011;58763;47.982;11.516;2024-03-06T01:04:08;4.60;;;2.00;;
71106;SDS011;58763;47.982;11.516;2024-03-06T01:06:34;4.32;;;2.30;;
71106;SDS011;58763;47.982;11.516;2024-03-06T01:09:00;3.88;;;1.88;;
71106;SDS011;58763;47.982;11.516;2024-03-06T01:11:25;3.88;;;2.00;;
71106;SDS011;58763;47.982;11.516;2024-03-06T01:13:54;3.70;;;1.80;;
71106;SDS011;58763;47.982;11.516;2024-03-06T01:16:20;3.60;;;1.70;;
71106;SDS011;58763;47.982;11.516;2024-03-06T01:18:45;3.15;;;1.70;;
71106;SDS011;58763;47.982;11.516;2024-03-06T01:21:11;3.70;;;1.80;;
71106;SDS011;58763;47.982;11.516;2024-03-06T01:23:36;3.38;;;1.70;;
71106;SDS011;58763;47.982;11.516;2024-03-06T01:26:02;3.35;;;1.88;;
71106;SDS011;58763;47.982;11.516;2024-03-06T01:28:28;3.20;;;1.55;;
71106;SDS011;58763;47.982;11.516;2024-03-06T01:30:55;4.03;;;2.00;;
71106;SDS011;58763;47.982;11.516;2024-03-06T01:33:20;3.25;;;1.70;;
71106;SDS011;58763;47.982;11.516;2024-03-06T01:35:46;3.55;;;1.63;;
71106;SDS011;58763;47.982;11.516;2024-03-06T01:38:11;2.88;;;1.42;;
71106;SDS011;58763;47.982;11.516;2024-03-06T01:40:37;2.85;;;1.45;;
71106;SDS011;58763;47.982;11.516;2024-03-06T01:43:03;3.47;;;1.42;;
71106;SDS011;58763;47.982;11.516;2024-03-06T01:45:29;2.85;;;1.55;;
71106;SDS011;58763;47.982;11.516;2024-03-06T01:47:56;2.88;;;1.50;;
71106;SDS011;58763;47.982;11.516;2024-03-06T01:50:22;4.13;;;1.60;;
71106;SDS011;58763;47.982;11.516;2024-03-06T01:52:47;3.13;;;1.50;;
71106;SDS011;58763;47.982;11.516;2024-03-06T01:55:16;2.90;;;1.25;;
71106;SDS011;58763;47.982;11.516;2024-03-06T01:57:41;2.83;;;1.48;;
71106;SDS011;58763;47.982;11.516;2024-03-06T02:00:08;3.00;;;1.50;;
71106;SDS011;58763;47.982;11.516;2024-03-06T02:02:40;2.88;;;1.38;;
71106;SDS011;58763;47.982;11.516;2024-03-06T02:05:06;2.55;;;1.35;;
71106;SDS011;58763;47.982;11.516;2024-03-06T02:07:32;3.40;;;1.63;;
71106;SDS011;58763;47.982;11.516;2024-03-06T02:09:58;3.20;;;1.70;;
71106;SDS011;58763;47.982;11.516;2024-03-06T02:12:24;3.28;;;1.63;;
71106;SDS011;58763;47.982;11.516;2024-03-06T02:14:50;3.45;;;1.58;;
71106;SDS011;58763;47.982;11.516;2024-03-06T02:17:15;3.03;;;1.40;;
71106;SDS011;58763;47.982;11.516;2024-03-06T02:19:42;3.70;;;1.70;;
71106;SDS011;58763;47.982;11.516;2024-03-06T02:22:09;3.03;;;1.30;;
71106;SDS011;58763;47.982;11.516;2024-03-06T02:24:36;3.10;;;1.45;;
71106;SDS011;58763;47.982;11.516;2024-03-06T02:27:04;3.75;;;1.85;;
71106;SDS011;58763;47.982;11.516;2024-03-06T02:29:33;2.75;;;1.30;;
71106;SDS011;58763;47.982;11.516;2024-03-06T02:31:59;2.95;;;1.48;;
71106;SDS011;58763;47.982;11.516;2024-03-06T02:34:24;2.88;;;1.45;;
71106;SDS011;58763;47.982;11.516;2024-03-06T02:36:50;4.55;;;2.20;;
71106;SDS011;58763;47.982;11.516;2024-03-06T02:39:17;3.75;;;1.98;;
71106;SDS011;58763;47.982;11.516;2024-03-06T02:41:43;3.58;;;2.00;;
71106;SDS011;58763;47.982;11.516;2024-03-06T02:47:06;3.78;;;1.70;;
71106;SDS011;58763;47.982;11.516;2024-03-06T02:49:31;2.25;;;1.15;;
71106;SDS011;58763;47.982;11.516;2024-03-06T02:51:57;3.00;;;1.40;;
71106;SDS011;58763;47.982;11.516;2024-03-06T02:54:23;3.10;;;1.48;;
71106;SDS011;58763;47.982;11.516;2024-03-06T02:56:51;3.45;;;1.50;;
71106;SDS011;58763;47.982;11.516;2024-03-06T02:59:17;2.50;;;1.23;;
71106;SDS011;58763;47.982;11.516;2024-03-06T03:01:44;3.15;;;1.58;;
71106;SDS011;58763;47.982;11.516;2024-03-06T03:04:10;2.78;;;1.30;;
71106;SDS011;58763;47.982;11.516;2024-03-06T03:06:35;3.67;;;1.80;;
71106;SDS011;58763;47.982;11.516;2024-03-06T03:09:01;3.33;;;1.60;;
71106;SDS011;58763;47.982;11.516;2024-03-06T03:11:29;3.35;;;1.40;;
71106;SDS011;58763;47.982;11.516;2024-03-06T03:13:55;3.00;;;1.60;;
71106;SDS011;58763;47.982;11.516;2024-03-06T03:16:22;3.13;;;1.60;;
71106;SDS011;58763;47.982;11.516;2024-03-06T03:18:47;4.28;;;1.88;;
71106;SDS011;58763;47.982;11.516;2024-03-06T03:21:13;4.00;;;1.90;;
71106;SDS011;58763;47.982;11.516;2024-03-06T03:23:39;3.20;;;1.60;;
71106;SDS011;58763;47.982;11.516;2024-03-06T03:26:06;3.70;;;1.75;;
71106;SDS011;58763;47.982;11.516;2024-03-06T03:28:32;3.85;;;2.03;;
71106;SDS011;58763;47.982;11.516;2024-03-06T03:30:58;3.60;;;1.80;;
71106;SDS011;58763;47.982;11.516;2024-03-06T03:33:24;4.13;;;2.10;;
71106;SDS011;58763;47.982;11.516;2024-03-06T03:35:50;4.10;;;2.30;;
71106;SDS011;58763;47.982;11.516;2024-03-06T03:38:16;3.85;;;2.05;;
71106;SDS011;58763;47.982;11.516;2024-03-06T03:40:42;3.97;;;2.05;;
71106;SDS011;58763;47.982;11.516;2024-03-06T03:43:08;3.85;;;1.95;;
71106;SDS011;58763;47.982;11.516;2024-03-06T03:45:34;3.45;;;1.60;;
71106;SDS011;58763;47.982;11.516;2024-03-06T03:48:01;3.50;;;1.80;;
71106;SDS011;58763;47.982;11.516;2024-03-06T03:50:30;4.78;;;2.33;;
71106;SDS011;58763;47.982;11.516;2024-03-06T03:52:57;4.03;;;2.13;;
71106;SDS011;58763;47.982;11.516;2024-03-06T03:55:26;4.90;;;2.17;;
71106;SDS011;58763;47.982;11.516;2024-03-06T03:57:54;3.90;;;1.90;;
71106;SDS011;58763;47.982;11.516;2024-03-06T04:00:20;3.38;;;1.80;;
71106;SDS011;58763;47.982;11.516;2024-03-06T04:02:45;4.90;;;2.50;;
71106;SDS011;58763;47.982;11.516;2024-03-06T04:05:11;3.80;;;2.08;;
71106;SDS011;58763;47.982;11.516;2024-03-06T04:07:37;4.57;;;1.75;;
71106;SDS011;58763;47.982;11.516;2024-03-06T04:10:03;4.53;;;2.10;;
71106;SDS011;58763;47.982;11.516;2024-03-06T04:12:29;5.45;;;2.40;;
71106;SDS011;58763;47.982;11.516;2024-03-06T04:14:56;4.18;;;1.95;;
71106;SDS011;58763;47.982;11.516;2024-03-06T04:17:22;3.95;;;2.10;;
71106;SDS011;58763;47.982;11.516;2024-03-06T04:19:48;4.07;;;1.95;;
71106;SDS011;58763;47.982;11.516;2024-03-06T04:22:14;3.80;;;1.90;;
71106;SDS011;58763;47.982;11.516;2024-03-06T04:24:43;4.30;;;2.25;;
71106;SDS011;58763;47.982;11.516;2024-03-06T04:27:10;3.97;;;2.08;;
71106;SDS011;58763;47.982;11.516;2024-03-06T04:29:36;4.30;;;1.95;;
71106;SDS011;58763;47.982;11.516;2024-03-06T04:32:01;3.55;;;1.80;;
71106;SDS011;58763;47.982;11.516;2024-03-06T04:34:27;3.70;;;1.83;;
71106;SDS011;58763;47.982;11.516;2024-03-06T04:36:52;5.10;;;1.88;;
71106;SDS011;58763;47.982;11.516;2024-03-06T04:39:18;3.67;;;1.60;;
71106;SDS011;58763;47.982;11.516;2024-03-06T04:41:43;3.25;;;1.55;;
71106;SDS011;58763;47.982;11.516;2024-03-06T04:44:09;3.28;;;1.40;;
71106;SDS011;58763;47.982;11.516;2024-03-06T04:46:35;3.33;;;1.60;;
71106;SDS011;58763;47.982;11.516;2024-03-06T04:49:01;3.05;;;1.40;;
71106;SDS011;58763;47.982;11.516;2024-03-06T04:51:27;3.22;;;1.48;;
71106;SDS011;58763;47.982;11.516;2024-03-06T04:53:53;2.83;;;1.40;;
71106;SDS011;58763;47.982;11.516;2024-03-06T04:56:18;3.00;;;1.45;;
71106;SDS011;58763;47.982;11.516;2024-03-06T04:58:46;2.92;;;1.40;;
71106;SDS011;58763;47.982;11.516;2024-03-06T05:01:12;2.42;;;1.20;;
71106;SDS011;58763;47.982;11.516;2024-03-06T05:03:38;2.40;;;1.20;;
71106;SDS011;58763;47.982;11.516;2024-03-06T05:06:04;2.45;;;1.10;;
71106;SDS011;58763;47.982;11.516;2024-03-06T05:08:30;2.92;;;1.50;;
71106;SDS011;58763;47.982;11.516;2024-03-06T05:10:59;2.70;;;1.38;;
71106;SDS011;58763;47.982;11.516;2024-03-06T05:13:25;3.03;;;1.48;;
71106;SDS011;58763;47.982;11.516;2024-03-06T05:15:52;2.88;;;1.38;;
71106;SDS011;58763;47.982;11.516;2024-03-06T05:18:19;3.47;;;1.80;;
71106;SDS011;58763;47.982;11.516;2024-03-06T05:20:45;2.90;;;1.40;;
71106;SDS011;58763;47.982;11.516;2024-03-06T05:23:11;2.90;;;1.40;;
71106;SDS011;58763;47.982;11.516;2024-03-06T05:25:38;3.45;;;1.58;;
71106;SDS011;58763;47.982;11.516;2024-03-06T05:28:04;3.65;;;1.80;;
71106;SDS011;58763;47.982;11.516;2024-03-06T05:30:31;3.35;;;1.55;;
71106;SDS011;58763;47.982;11.516;2024-03-06T05:32:57;3.30;;;1.58;;
71106;SDS011;58763;47.982;11.516;2024-03-06T05:35:22;3.50;;;1.77;;
71106;SDS011;58763;47.982;11.516;2024-03-06T05:37:48;3.42;;;1.77;;
71106;SDS011;58763;47.982;11.516;2024-03-06T05:40:14;3.50;;;1.92;;
71106;SDS011;58763;47.982;11.516;2024-03-06T05:42:40;3.40;;;1.90;;
71106;SDS011;58763;47.982;11.516;2024-03-06T05:45:07;3.42;;;1.63;;
71106;SDS011;58763;47.982;11.516;2024-03-06T05:47:39;3.38;;;1.83;;
71106;SDS011;58763;47.982;11.516;2024-03-06T05:50:06;3.10;;;1.95;;
71106;SDS011;58763;47.982;11.516;2024-03-06T05:52:32;3.20;;;1.58;;
71106;SDS011;58763;47.982;11.516;2024-03-06T05:54:59;4.95;;;2.00;;
71106;SDS011;58763;47.982;11.516;2024-03-06T05:57:25;3.10;;;1.60;;
71106;SDS011;58763;47.982;11.516;2024-03-06T05:59:50;3.88;;;1.98;;
71106;SDS011;58763;47.982;11.516;2024-03-06T06:02:16;4.22;;;2.15;;
71106;SDS011;58763;47.982;11.516;2024-03-06T06:04:42;3.33;;;1.80;;
71106;SDS011;58763;47.982;11.516;2024-03-06T06:07:07;4.10;;;2.15;;
71106;SDS011;58763;47.982;11.516;2024-03-06T06:09:33;3.90;;;1.92;;
71106;SDS011;58763;47.982;11.516;2024-03-06T06:11:59;3.72;;;2.15;;
71106;SDS011;58763;47.982;11.516;2024-03-06T06:14:25;3.97;;;1.80;;
71106;SDS011;58763;47.982;11.516;2024-03-06T06:16:52;4.00;;;1.92;;
71106;SDS011;58763;47.982;11.516;2024-03-06T06:19:18;4.63;;;2.33;;
71106;SDS011;58763;47.982;11.516;2024-03-06T06:21:43;5.50;;;2.40;;
71106;SDS011;58763;47.982;11.516;2024-03-06T06:24:09;4.18;;;2.25;;
71106;SDS011;58763;47.982;11.516;2024-03-06T06:26:35;4.45;;;2.40;;
71106;SDS011;58763;47.982;11.516;2024-03-06T06:29:01;4.43;;;2.38;;
71106;SDS011;58763;47.982;11.516;2024-03-06T06:31:26;3.83;;;1.95;;
71106;SDS011;58763;47.982;11.516;2024-03-06T06:33:52;4.18;;;2.30;;
71106;SDS011;58763;47.982;11.516;2024-03-06T06:36:18;4.30;;;2.35;;
71106;SDS011;58763;47.982;11.516;2024-03-06T06:38:46;4.07;;;2.10;;
71106;SDS011;58763;47.982;11.516;2024-03-06T06:41:13;4.85;;;2.05;;
71106;SDS011;58763;47.982;11.516;2024-03-06T06:43:40;4.00;;;2.28;;
71106;SDS011;58763;47.982;11.516;2024-03-06T06:46:07;4.43;;;2.28;;
71106;SDS011;58763;47.982;11.516;2024-03-06T06:48:32;4.20;;;2.35;;
71106;SDS011;58763;47.982;11.516;2024-03-06T06:51:01;4.13;;;2.30;;
71106;SDS011;58763;47.982;11.516;2024-03-06T06:53:31;5.30;;;2.72;;
71106;SDS011;58763;47.982;11.516;2024-03-06T06:55:57;4.13;;;2.05;;
71106;SDS011;58763;47.982;11.516;2024-03-06T06:58:23;4.45;;;2.35;;
71106;SDS011;58763;47.982;11.516;2024-03-06T07:00:49;4.22;;;2.38;;
71106;SDS011;58763;47.982;11.516;2024-03-06T07:03:16;4.38;;;2.78;;
71106;SDS011;58763;47.982;11.516;2024-03-06T07:05:41;5.47;;;2.72;;
71106;SDS011;58763;47.982;11.516;2024-03-06T07:08:07;4.10;;;2.17;;
71106;SDS011;58763;47.982;11.516;2024-03-06T07:10:33;4.93;;;2.40;;
71106;SDS011;58763;47.982;11.516;2024-03-06T07:13:01;4.40;;;2.70;;
71106;SDS011;58763;47.982;11.516;2024-03-06T07:15:28;4.00;;;2.13;;
71106;SDS011;58763;47.982;11.516;2024-03-06T07:17:53;5.95;;;3.03;;
71106;SDS011;58763;47.982;11.516;2024-03-06T07:20:19;4.18;;;2.38;;
71106;SDS011;58763;47.982;11.516;2024-03-06T07:22:45;3.85;;;2.10;;
71106;SDS011;58763;47.982;11.516;2024-03-06T07:25:11;4.03;;;2.05;;
71106;SDS011;58763;47.982;11.516;2024-03-06T07:27:37;7.07;;;2.50;;
71106;SDS011;58763;47.982;11.516;2024-03-06T07:30:02;5.18;;;2.47;;
71106;SDS011;58763;47.982;11.516;2024-03-06T07:32:28;4.32;;;2.20;;
71106;SDS011;58763;47.982;11.516;2024-03-06T07:34:54;4.40;;;2.50;;
71106;SDS011;58763;47.982;11.516;2024-03-06T07:37:20;4.28;;;2.50;;
71106;SDS011;58763;47.982;11.516;2024-03-06T07:39:46;5.00;;;2.40;;
71106;SDS011;58763;47.982;11.516;2024-03-06T07:42:13;4.00;;;2.03;;
71106;SDS011;58763;47.982;11.516;2024-03-06T07:44:40;4.18;;;2.33;;
71106;SDS011;58763;47.982;11.516;2024-03-06T07:47:06;4.00;;;2.25;;
71106;SDS011;58763;47.982;11.516;2024-03-06T07:49:32;4.00;;;2.15;;
71106;SDS011;58763;47.982;11.516;2024-03-06T07:51:58;3.88;;;2.00;;
71106;SDS011;58763;47.982;11.516;2024-03-06T07:54:24;4.25;;;2.40;;
71106;SDS011;58763;47.982;11.516;2024-03-06T07:56:50;3.72;;;2.08;;
71106;SDS011;58763;47.982;11.516;2024-03-06T07:59:16;5.53;;;2.20;;
71106;SDS011;58763;47.982;11.516;2024-03-06T08:01:43;4.53;;;2.40;;
71106;SDS011;58763;47.982;11.516;2024-03-06T08:04:09;4.28;;;2.38;;
71106;SDS011;58763;47.982;11.516;2024-03-06T08:06:34;4.68;;;2.42;;
71106;SDS011;58763;47.982;11.516;2024-03-06T08:09:04;4.97;;;2.65;;
71106;SDS011;58763;47.982;11.516;2024-03-06T08:11:32;4.47;;;2.67;;
71106;SDS011;58763;47.982;11.516;2024-03-06T08:13:59;5.13;;;2.60;;
71106;SDS011;58763;47.982;11.516;2024-03-06T08:16:25;4.70;;;2.60;;
71106;SDS011;58763;47.982;11.516;2024-03-06T08:18:50;4.47;;;2.63;;
71106;SDS011;58763;47.982;11.516;2024-03-06T08:21:16;4.90;;;2.80;;
71106;SDS011;58763;47.982;11.516;2024-03-06T08:23:42;4.38;;;2.55;;
71106;SDS011;58763;47.982;11.516;2024-03-06T08:26:08;4.47;;;2.50;;
71106;SDS011;58763;47.982;11.516;2024-03-06T08:28:35;4.88;;;2.50;;
71106;SDS011;58763;47.982;11.516;2024-03-06T08:31:00;4.30;;;2.58;;
71106;SDS011;58763;47.982;11.516;2024-03-06T08:33:26;4.88;;;2.97;;
71106;SDS011;58763;47.982;11.516;2024-03-06T08:35:51;4.50;;;2.70;;
71106;SDS011;58763;47.982;11.516;2024-03-06T08:38:17;6.28;;;2.60;;
71106;SDS011;58763;47.982;11.516;2024-03-06T08:40:43;4.47;;;2.40;;
71106;SDS011;58763;47.982;11.516;2024-03-06T08:43:11;5.10;;;2.38;;
71106;SDS011;58763;47.982;11.516;2024-03-06T08:45:38;4.20;;;2.60;;
71106;SDS011;58763;47.982;11.516;2024-03-06T08:48:04;4.35;;;2.28;;
71106;SDS011;58763;47.982;11.516;2024-03-06T08:50:30;4.65;;;2.42;;
71106;SDS011;58763;47.982;11.516;2024-03-06T08:52:56;4.68;;;2.53;;
71106;SDS011;58763;47.982;11.516;2024-03-06T08:55:22;4.03;;;2.42;;
71106;SDS011;58763;47.982;11.516;2024-03-06T08:57:48;5.05;;;2.65;;
71106;SDS011;58763;47.982;11.516;2024-03-06T09:00:15;4.53;;;2.55;;
71106;SDS011;58763;47.982;11.516;2024-03-06T09:02:43;4.45;;;2.58;;
71106;SDS011;58763;47.982;11.516;2024-03-06T09:05:09;4.93;;;2.30;;
71106;SDS011;58763;47.982;11.516;2024-03-06T09:07:38;6.20;;;2.70;;
71106;SDS011;58763;47.982;11.516;2024-03-06T09:10:07;4.38;;;2.22;;
71106;SDS011;58763;47.982;11.516;2024-03-06T09:12:33;5.20;;;2.20;;
71106;SDS011;58763;47.982;11.516;2024-03-06T09:15:00;4.32;;;2.17;;
71106;SDS011;58763;47.982;11.516;2024-03-06T09:17:26;4.80;;;2.67;;
71106;SDS011;58763;47.982;11.516;2024-03-06T09:19:52;4.60;;;2.40;;
71106;SDS011;58763;47.982;11.516;2024-03-06T09:22:18;4.28;;;2.20;;
71106;SDS011;58763;47.982;11.516;2024-03-06T09:24:44;3.80;;;2.03;;
71106;SDS011;58763;47.982;11.516;2024-03-06T09:27:10;4.22;;;2.50;;
71106;SDS011;58763;47.982;11.516;2024-03-06T09:29:35;4.15;;;2.10;;
71106;SDS011;58763;47.982;11.516;2024-03-06T09:32:01;4.00;;;2.20;;
71106;SDS011;58763;47.982;11.516;2024-03-06T09:34:27;6.82;;;3.33;;
71106;SDS011;58763;47.982;11.516;2024-03-06T09:36:53;5.13;;;2.47;;
71106;SDS011;58763;47.982;11.516;2024-03-06T09:39:18;4.30;;;2.25;;
71106;SDS011;58763;47.982;11.516;2024-03-06T09:41:46;4.78;;;2.97;;
71106;SDS011;58763;47.982;11.516;2024-03-06T09:44:13;3.50;;;1.90;;
71106;SDS011;58763;47.982;11.516;2024-03-06T09:46:43;4.13;;;2.17;;
71106;SDS011;58763;47.982;11.516;2024-03-06T09:49:10;4.22;;;2.40;;
71106;SDS011;58763;47.982;11.516;2024-03-06T09:51:38;3.70;;;2.17;;
71106;SDS011;58763;47.982;11.516;2024-03-06T09:54:09;4.80;;;2.78;;
71106;SDS011;58763;47.982;11.516;2024-03-06T09:56:38;5.30;;;3.15;;
71106;SDS011;58763;47.982;11.516;2024-03-06T09:59:04;4.22;;;2.50;;
71106;SDS011;58763;47.982;11.516;2024-03-06T10:01:31;4.30;;;2.35;;
71106;SDS011;58763;47.982;11.516;2024-03-06T10:03:57;4.38;;;2.47;;
71106;SDS011;58763;47.982;11.516;2024-03-06T10:06:23;7.78;;;2.47;;
71106;SDS011;58763;47.982;11.516;2024-03-06T10:08:50;5.25;;;2.45;;
71106;SDS011;58763;47.982;11.516;2024-03-06T10:11:16;9.98;;;2.72;;
71106;SDS011;58763;47.982;11.516;2024-03-06T10:13:43;5.00;;;2.95;;
71106;SDS011;58763;47.982;11.516;2024-03-06T10:16:08;8.40;;;2.47;;
71106;SDS011;58763;47.982;11.516;2024-03-06T10:18:36;4.35;;;2.63;;
71106;SDS011;58763;47.982;11.516;2024-03-06T10:21:04;6.05;;;2.75;;
71106;SDS011;58763;47.982;11.516;2024-03-06T10:23:31;7.68;;;4.57;;
71106;SDS011;58763;47.982;11.516;2024-03-06T10:25:57;4.78;;;2.67;;
71106;SDS011;58763;47.982;11.516;2024-03-06T10:28:23;6.55;;;4.10;;
71106;SDS011;58763;47.982;11.516;2024-03-06T10:30:49;7.30;;;3.22;;
71106;SDS011;58763;47.982;11.516;2024-03-06T10:33:17;4.22;;;2.45;;
71106;SDS011;58763;47.982;11.516;2024-03-06T10:35:44;4.22;;;2.78;;
71106;SDS011;58763;47.982;11.516;2024-03-06T10:38:11;6.63;;;2.00;;
71106;SDS011;58763;47.982;11.516;2024-03-06T10:40:38;5.30;;;3.00;;
71106;SDS011;58763;47.982;11.516;2024-03-06T10:43:06;4.10;;;2.60;;
71106;SDS011;58763;47.982;11.516;2024-03-06T10:48:06;4.82;;;2.67;;
71106;SDS011;58763;47.982;11.516;2024-03-06T10:50:33;4.43;;;2.53;;
71106;SDS011;58763;47.982;11.516;2024-03-06T10:52:58;4.25;;;2.53;;
71106;SDS011;58763;47.982;11.516;2024-03-06T10:55:25;4.97;;;2.97;;
71106;SDS011;58763;47.982;11.516;2024-03-06T10:57:55;5.75;;;3.60;;
71106;SDS011;58763;47.982;11.516;2024-03-06T11:00:22;3.63;;;2.33;;
71106;SDS011;58763;47.982;11.516;2024-03-06T11:02:49;4.53;;;2.10;;
71106;SDS011;58763;47.982;11.516;2024-03-06T11:05:18;4.05;;;2.35;;
71106;SDS011;58763;47.982;11.516;2024-03-06T11:07:44;4.20;;;2.33;;
71106;SDS011;58763;47.982;11.516;2024-03-06T11:10:10;3.67;;;2.38;;
71106;SDS011;58763;47.982;11.516;2024-03-06T11:12:41;3.88;;;2.30;;
71106;SDS011;58763;47.982;11.516;2024-03-06T11:15:14;4.50;;;2.88;;
71106;SDS011;58763;47.982;11.516;2024-03-06T11:17:42;5.85;;;3.25;;
71106;SDS011;58763;47.982;11.516;2024-03-06T11:20:09;4.47;;;2.70;;
71106;SDS011;58763;47.982;11.516;2024-03-06T11:28:24;6.32;;;3.65;;
71106;SDS011;58763;47.982;11.516;2024-03-06T11:33:23;4.38;;;2.55;;
71106;SDS011;58763;47.982;11.516;2024-03-06T11:39:06;4.65;;;2.40;;
71106;SDS011;58763;47.982;11.516;2024-03-06T11:44:15;4.18;;;2.67;;
71106;SDS011;58763;47.982;11.516;2024-03-06T11:46:50;4.70;;;3.00;;
71106;SDS011;58763;47.982;11.516;2024-03-06T11:49:26;4.75;;;2.25;;
71106;SDS011;58763;47.982;11.516;2024-03-06T11:51:54;4.18;;;2.30;;
71106;SDS011;58763;47.982;11.516;2024-03-06T11:54:22;4.82;;;2.65;;
71106;SDS011;58763;47.982;11.516;2024-03-06T11:56:55;4.18;;;2.30;;
71106;SDS011;58763;47.982;11.516;2024-03-06T12:01:51;4.20;;;2.20;;
71106;SDS011;58763;47.982;11.516;2024-03-06T12:04:24;4.28;;;2.30;;
71106;SDS011;58763;47.982;11.516;2024-03-06T12:06:50;4.07;;;2.42;;
71106;SDS011;58763;47.982;11.516;2024-03-06T12:09:16;4.70;;;3.30;;
71106;SDS011;58763;47.982;11.516;2024-03-06T12:11:42;3.80;;;2.50;;
71106;SDS011;58763;47.982;11.516;2024-03-06T12:14:15;3.67;;;2.40;;
71106;SDS011;58763;47.982;11.516;2024-03-06T12:16:43;3.78;;;2.30;;
71106;SDS011;58763;47.982;11.516;2024-03-06T12:19:10;3.88;;;2.20;;
71106;SDS011;58763;47.982;11.516;2024-03-06T12:21:35;4.10;;;2.17;;
71106;SDS011;58763;47.982;11.516;2024-03-06T12:24:04;4.15;;;2.45;;
71106;SDS011;58763;47.982;11.516;2024-03-06T12:26:30;3.95;;;2.28;;
71106;SDS011;58763;47.982;11.516;2024-03-06T12:29:09;4.03;;;2.35;;
71106;SDS011;58763;47.982;11.516;2024-03-06T12:31:37;4.80;;;2.80;;
71106;SDS011;58763;47.982;11.516;2024-03-06T12:34:08;3.72;;;2.00;;
71106;SDS011;58763;47.982;11.516;2024-03-06T12:36:38;4.68;;;2.40;;
71106;SDS011;58763;47.982;11.516;2024-03-06T12:39:04;4.30;;;2.10;;
71106;SDS011;58763;47.982;11.516;2024-03-06T12:41:41;4.82;;;2.10;;
71106;SDS011;58763;47.982;11.516;2024-03-06T12:44:06;3.80;;;2.10;;
71106;SDS011;58763;47.982;11.516;2024-03-06T12:46:33;4.07;;;2.05;;
71106;SDS011;58763;47.982;11.516;2024-03-06T12:48:59;3.97;;;2.00;;
71106;SDS011;58763;47.982;11.516;2024-03-06T12:51:24;3.80;;;2.38;;
71106;SDS011;58763;47.982;11.516;2024-03-06T12:53:50;3.90;;;2.10;;
71106;SDS011;58763;47.982;11.516;2024-03-06T12:56:18;4.40;;;2.47;;
71106;SDS011;58763;47.982;11.516;2024-03-06T12:58:45;4.05;;;2.28;;
71106;SDS011;58763;47.982;11.516;2024-03-06T13:01:11;3.95;;;2.40;;
71106;SDS011;58763;47.982;11.516;2024-03-06T13:03:37;4.72;;;2.50;;
71106;SDS011;58763;47.982;11.516;2024-03-06T13:06:03;4.00;;;2.20;;
71106;SDS011;58763;47.982;11.516;2024-03-06T13:08:30;4.20;;;2.20;;
71106;SDS011;58763;47.982;11.516;2024-03-06T13:10:57;3.75;;;2.17;;
71106;SDS011;58763;47.982;11.516;2024-03-06T13:13:23;3.58;;;1.90;;
71106;SDS011;58763;47.982;11.516;2024-03-06T13:15:54;4.10;;;2.00;;
71106;SDS011;58763;47.982;11.516;2024-03-06T13:18:19;3.25;;;1.83;;
71106;SDS011;58763;47.982;11.516;2024-03-06T13:20:45;3.30;;;2.05;;
71106;SDS011;58763;47.982;11.516;2024-03-06T13:23:11;3.60;;;1.95;;
71106;SDS011;58763;47.982;11.516;2024-03-06T13:25:37;3.70;;;1.88;;
71106;SDS011;58763;47.982;11.516;2024-03-06T13:28:03;3.30;;;1.75;;
71106;SDS011;58763;47.982;11.516;2024-03-06T13:30:30;3.38;;;1.80;;
71106;SDS011;58763;47.982;11.516;2024-03-06T13:32:56;3.53;;;2.00;;
71106;SDS011;58763;47.982;11.516;2024-03-06T13:35:22;3.50;;;1.75;;
71106;SDS011;58763;47.982;11.516;2024-03-06T13:37:47;3.50;;;1.98;;
71106;SDS011;58763;47.982;11.516;2024-03-06T13:40:15;4.15;;;2.20;;
71106;SDS011;58763;47.982;11.516;2024-03-06T13:42:41;4.40;;;2.40;;
71106;SDS011;58763;47.982;11.516;2024-03-06T13:45:07;3.17;;;1.63;;
71106;SDS011;58763;47.982;11.516;2024-03-06T13:47:40;2.88;;;1.73;;
71106;SDS011;58763;47.982;11.516;2024-03-06T13:50:08;3.00;;;1.58;;
71106;SDS011;58763;47.982;11.516;2024-03-06T13:52:34;3.03;;;1.63;;
71106;SDS011;58763;47.982;11.516;2024-03-06T13:54:59;3.35;;;1.77;;
71106;SDS011;58763;47.982;11.516;2024-03-06T13:57:32;3.67;;;1.67;;
71106;SDS011;58763;47.982;11.516;2024-03-06T14:00:00;3.53;;;2.05;;
71106;SDS011;58763;47.982;11.516;2024-03-06T14:02:26;3.38;;;1.92;;
71106;SDS011;58763;47.982;11.516;2024-03-06T14:04:52;3.10;;;1.80;;
71106;SDS011;58763;47.982;11.516;2024-03-06T14:07:17;3.40;;;1.83;;
71106;SDS011;58763;47.982;11.516;2024-03-06T14:09:44;4.70;;;2.00;;
71106;SDS011;58763;47.982;11.516;2024-03-06T14:12:10;3.25;;;1.70;;
71106;SDS011;58763;47.982;11.516;2024-03-06T14:14:35;3.20;;;1.98;;
71106;SDS011;58763;47.982;11.516;2024-03-06T14:17:01;4.00;;;2.45;;
71106;SDS011;58763;47.982;11.516;2024-03-06T14:19:26;3.85;;;2.10;;
71106;SDS011;58763;47.982;11.516;2024-03-06T14:21:52;4.03;;;2.20;;
71106;SDS011;58763;47.982;11.516;2024-03-06T14:24:17;4.40;;;2.30;;
71106;SDS011;58763;47.982;11.516;2024-03-06T14:26:43;4.65;;;2.63;;
71106;SDS011;58763;47.982;11.516;2024-03-06T14:29:09;18.83;;;4.80;;
71106;SDS011;58763;47.982;11.516;2024-03-06T14:31:34;4.88;;;2.65;;
71106;SDS011;58763;47.982;11.516;2024-03-06T14:34:00;6.03;;;2.88;;
71106;SDS011;58763;47.982;11.516;2024-03-06T14:36:26;5.57;;;2.88;;
71106;SDS011;58763;47.982;11.516;2024-03-06T14:38:51;7.13;;;2.95;;
71106;SDS011;58763;47.982;11.516;2024-03-06T14:41:18;4.65;;;2.92;;
71106;SDS011;58763;47.982;11.516;2024-03-06T14:43:48;5.60;;;2.97;;
71106;SDS011;58763;47.982;11.516;2024-03-06T14:46:14;5.60;;;3.28;;
71106;SDS011;58763;47.982;11.516;2024-03-06T14:48:40;5.95;;;3.33;;
71106;SDS011;58763;47.982;11.516;2024-03-06T14:51:06;5.93;;;3.42;;